Terminal Aerodrome Forecast
Issued by NWS Paducah, KY

Home | Current Version | Previous Version | Text Only | Print | Product List | Glossary On
Versions: 1 2 3 4 5 6 7 8 9 10 11 12 13 14 15 16 17 18 19
176
FTUS43 KPAH 220822 AAA
TAFPAH
TAF AMD
KPAH 220822Z 2208/2306 03008KT P6SM OVC008
      TEMPO 2208/2211 4SM -RA
     FM221500 05007KT P6SM OVC008 PROB30 2300/2306 4SM -TSRA BR
      OVC007CB=

USA.gov is the U.S. government's official web portal to all federal, state and local government web resources and services.